Time;durP1;ratioP1;P1;durP2;ratioP2;P2;SDS_P1;SDS_P2;PMS_P1;PMS_P2;Temp;Humidity;BMP_temperature;BMP_pressure;BME280_temperature;BME280_humidity;BME280_pressure;Samples;Min_cycle;Max_cycle;Signal;HPM_P1;HPM_P2
2022/07/16 00:01:49;;;;;;;8.17;7.77;;;;;;;18.61;64.18;92979.63;5042443;28;20242;-70
2022/07/16 00:04:15;;;;;;;8.03;7.63;;;;;;;18.63;63.86;92968.72;5081769;28;20253;-71
2022/07/16 00:06:43;;;;;;;7.90;7.50;;;;;;;18.64;63.52;92960.47;5076680;28;20257;-71
2022/07/16 00:09:09;;;;;;;8.80;8.20;;;;;;;18.65;63.50;92954.09;5075958;28;20188;-70
2022/07/16 00:11:34;;;;;;;8.47;8.07;;;;;;;18.76;63.94;92968.50;5076159;28;20234;-71
2022/07/16 00:14:00;;;;;;;8.90;8.20;;;;;;;18.84;63.89;92972.19;5079611;28;20194;-70
2022/07/16 00:16:25;;;;;;;9.03;8.43;;;;;;;18.81;63.22;92970.97;5073459;28;20218;-70
2022/07/16 00:21:35;;;;;;;7.70;7.30;;;;;;;18.85;62.54;92973.72;5074618;28;20221;-70
2022/07/16 00:24:00;;;;;;;8.03;7.63;;;;;;;18.84;61.94;92966.91;5079974;28;20238;-70
2022/07/16 00:26:25;;;;;;;8.43;8.03;;;;;;;18.86;61.91;92970.00;5077102;28;20210;-70
2022/07/16 00:28:51;;;;;;;8.67;8.23;;;;;;;18.86;62.67;92956.78;5061327;28;20200;-71
2022/07/16 00:31:16;;;;;;;8.40;8.00;;;;;;;18.76;63.15;92946.56;5076714;28;20287;-70
2022/07/16 00:33:42;;;;;;;8.63;8.07;;;;;;;18.80;63.43;92968.66;5077069;28;20263;-70
2022/07/16 00:36:07;;;;;;;8.47;8.07;;;;;;;18.75;63.60;92961.66;5076186;28;20227;-70
2022/07/16 00:38:33;;;;;;;8.80;8.40;;;;;;;18.67;63.97;92959.06;5081746;28;20256;-71
2022/07/16 00:40:58;;;;;;;8.40;8.00;;;;;;;18.78;63.69;92960.25;5076755;28;20225;-70
2022/07/16 00:43:23;;;;;;;7.73;7.33;;;;;;;18.79;64.04;92962.56;5081440;28;20210;-70
2022/07/16 00:45:49;;;;;;;9.77;8.97;;;;;;;18.82;63.99;92955.84;5073193;28;20232;-70
2022/07/16 00:48:14;;;;;;;8.03;7.63;;;;;;;18.67;64.20;92959.06;5078306;28;20195;-71
2022/07/16 00:50:41;;;;;;;8.60;8.20;;;;;;;18.63;64.83;92960.81;5078047;28;20308;-71
2022/07/16 00:53:10;;;;;;;8.20;7.80;;;;;;;18.65;63.97;92959.38;5075543;28;20200;-70
2022/07/16 00:55:36;;;;;;;8.73;8.23;;;;;;;18.79;63.10;92969.72;5058589;28;20196;-70
2022/07/16 00:58:02;;;;;;;8.30;7.90;;;;;;;18.79;63.71;92967.06;5076541;28;20217;-70
2022/07/16 01:00:28;;;;;;;8.07;7.57;;;;;;;18.85;63.97;92971.09;5075458;28;20192;-71
2022/07/16 01:02:54;;;;;;;7.57;7.17;;;;;;;18.81;64.74;92964.91;5080544;28;20255;-70
2022/07/16 01:05:20;;;;;;;8.10;7.67;;;;;;;18.75;63.99;92963.53;5079768;28;20190;-71
2022/07/16 01:07:45;;;;;;;8.47;8.07;;;;;;;18.71;64.69;92965.25;5075499;28;20233;-70
2022/07/16 01:10:12;;;;;;;7.77;7.27;;;;;;;18.60;64.48;92956.91;5075361;28;20193;-70
2022/07/16 01:12:39;;;;;;;8.20;7.80;;;;;;;18.64;64.70;92964.97;5077603;28;20837;-70
2022/07/16 01:15:04;;;;;;;8.67;8.20;;;;;;;18.55;65.42;92953.69;5077951;28;20204;-71
2022/07/16 01:17:30;;;;;;;7.23;6.83;;;;;;;18.62;65.44;92965.31;5077840;28;20224;-70
2022/07/16 01:19:56;;;;;;;8.50;8.07;;;;;;;18.58;64.54;92953.03;5077432;28;20190;-70
2022/07/16 01:22:22;;;;;;;7.87;7.40;;;;;;;18.46;65.29;92964.28;5060807;28;20215;-70
2022/07/16 01:24:49;;;;;;;8.83;8.13;;;;;;;18.42;65.38;92965.22;5081789;28;20202;-70
2022/07/16 01:27:17;;;;;;;8.73;7.97;;;;;;;18.28;65.68;92969.94;5082815;28;20283;-70
2022/07/16 01:29:42;;;;;;;8.13;7.73;;;;;;;18.36;65.29;92963.84;5079429;28;20187;-71
2022/07/16 01:32:07;;;;;;;8.07;7.67;;;;;;;18.36;65.68;92971.75;5078765;28;20262;-70
2022/07/16 01:34:33;;;;;;;9.37;8.87;;;;;;;18.18;66.24;92959.72;5081531;28;20191;-70
2022/07/16 01:37:01;;;;;;;7.87;7.43;;;;;;;18.29;66.53;92971.50;5080429;28;20281;-70
2022/07/16 01:39:28;;;;;;;8.20;7.80;;;;;;;18.20;66.91;92966.22;5081934;28;20190;-71
2022/07/16 01:41:56;;;;;;;8.73;8.33;;;;;;;18.18;67.39;92967.63;5076852;28;20230;-70
2022/07/16 01:44:23;;;;;;;9.27;8.77;;;;;;;18.19;66.96;92959.41;5078537;28;20203;-71
2022/07/16 01:46:49;;;;;;;8.27;7.53;;;;;;;18.26;66.64;92966.81;5082154;28;20234;-70
2022/07/16 01:49:14;;;;;;;9.10;8.50;;;;;;;18.20;67.05;92962.78;5079329;28;20757;-70
2022/07/16 01:51:40;;;;;;;8.90;8.50;;;;;;;18.00;67.49;92950.25;5080186;28;20241;-70
2022/07/16 01:54:05;;;;;;;9.30;8.70;;;;;;;18.12;67.36;92963.59;5061469;28;20277;-70
2022/07/16 01:56:30;;;;;;;8.77;8.27;;;;;;;18.12;67.58;92968.88;5080594;28;20222;-70
2022/07/16 01:58:56;;;;;;;9.33;8.90;;;;;;;18.07;67.52;92971.72;5076168;28;20256;-71
2022/07/16 02:01:21;;;;;;;8.27;7.87;;;;;;;18.03;67.33;92965.47;5081492;28;20701;-69
2022/07/16 02:03:47;;;;;;;8.57;8.17;;;;;;;17.92;67.27;92974.84;5058114;28;20673;-70
2022/07/16 02:06:12;;;;;;;8.90;8.37;;;;;;;17.93;67.29;92960.56;5059035;28;20262;-70
2022/07/16 02:08:38;;;;;;;9.27;8.60;;;;;;;18.04;67.62;92974.97;5062477;28;20206;-70
2022/07/16 02:11:04;;;;;;;8.33;7.93;;;;;;;17.95;67.85;92966.28;5059259;28;20228;-70
2022/07/16 02:13:29;;;;;;;8.37;7.87;;;;;;;17.98;67.10;92978.88;5058391;28;20215;-70
2022/07/16 02:15:54;;;;;;;8.37;7.97;;;;;;;17.96;67.45;92981.06;5059244;28;20238;-71
2022/07/16 02:18:20;;;;;;;7.63;7.33;;;;;;;17.74;69.28;92973.31;5059839;28;20198;-70
2022/07/16 02:20:46;;;;;;;9.17;8.70;;;;;;;17.78;69.04;92984.81;5059211;28;20228;-71
2022/07/16 02:23:11;;;;;;;8.80;8.40;;;;;;;17.72;68.76;92980.78;5062032;28;20199;-70
2022/07/16 02:25:36;;;;;;;8.13;7.73;;;;;;;17.78;68.13;92990.09;5058170;28;20194;-70
2022/07/16 02:28:08;;;;;;;8.80;8.40;;;;;;;17.79;68.43;92996.94;5038809;28;20187;-71
2022/07/16 02:30:42;;;;;;;8.47;7.97;;;;;;;17.67;68.77;92984.34;5037931;28;20215;-70
2022/07/16 02:33:09;;;;;;;8.97;8.07;;;;;;;17.70;69.45;93009.38;5038114;28;20194;-72
2022/07/16 02:35:36;;;;;;;8.97;8.47;;;;;;;17.49;70.28;92999.41;5038202;28;20187;-70
2022/07/16 02:38:01;;;;;;;8.23;7.83;;;;;;;17.56;70.03;93005.03;5040288;28;20176;-70
2022/07/16 02:40:27;;;;;;;8.37;8.00;;;;;;;17.61;69.54;92996.16;5038884;28;20184;-71
2022/07/16 02:42:53;;;;;;;8.70;8.30;;;;;;;17.49;70.45;93003.94;5038623;28;20271;-71
2022/07/16 02:45:18;;;;;;;8.83;8.43;;;;;;;17.53;69.84;92987.16;5037385;28;20201;-70
2022/07/16 02:47:44;;;;;;;8.07;7.57;;;;;;;17.48;69.00;92976.75;5040513;28;20317;-68
2022/07/16 02:50:09;;;;;;;7.63;7.33;;;;;;;17.58;69.02;92992.28;5041086;28;20188;-70
2022/07/16 02:52:35;;;;;;;9.10;8.70;;;;;;;17.54;69.11;92996.63;5039273;28;20221;-71
2022/07/16 02:55:00;;;;;;;9.57;9.07;;;;;;;17.52;69.38;92990.13;5040258;28;20192;-70
2022/07/16 02:57:26;;;;;;;9.27;8.77;;;;;;;17.58;68.94;92991.50;5039089;28;20222;-71
2022/07/16 02:59:51;;;;;;;9.40;8.90;;;;;;;17.48;68.80;92989.97;5039898;28;20191;-70
2022/07/16 03:02:17;;;;;;;8.03;7.63;;;;;;;17.30;69.15;92969.91;5047342;28;20238;-70
2022/07/16 03:04:42;;;;;;;8.20;7.70;;;;;;;17.52;68.36;92987.47;5059553;28;20246;-71
2022/07/16 03:07:07;;;;;;;8.67;8.07;;;;;;;17.60;68.70;92994.63;5059470;28;20216;-70
2022/07/16 03:09:34;;;;;;;8.43;7.93;;;;;;;17.62;67.88;93002.22;5061436;28;21094;-70
2022/07/16 03:11:59;;;;;;;8.43;8.03;;;;;;;17.60;68.16;92990.09;5055351;28;20241;-70
2022/07/16 03:14:24;;;;;;;8.73;8.27;;;;;;;17.94;67.47;92996.44;5061057;28;20206;-71
2022/07/16 03:16:50;;;;;;;8.37;7.97;;;;;;;18.51;65.61;93005.63;5054612;28;20273;-71
2022/07/16 03:19:15;;;;;;;9.27;8.67;;;;;;;19.14;64.09;93010.78;5061074;28;20191;-71
2022/07/16 03:21:40;;;;;;;8.10;7.60;;;;;;;19.70;62.03;93012.91;5059071;28;20373;-70
2022/07/16 03:24:06;;;;;;;8.90;8.33;;;;;;;20.15;59.96;93016.44;5060404;28;20916;-70
2022/07/16 03:26:31;;;;;;;9.00;8.60;;;;;;;20.18;60.20;93017.66;5056866;28;20254;-71
2022/07/16 03:28:56;;;;;;;8.03;7.67;;;;;;;19.93;61.16;93021.28;5060896;28;20174;-70
2022/07/16 03:31:22;;;;;;;9.30;8.40;;;;;;;19.73;61.68;93008.84;5060489;28;20231;-71
2022/07/16 03:33:47;;;;;;;9.30;8.80;;;;;;;19.78;61.71;93024.53;5057576;28;20244;-71
2022/07/16 03:36:13;;;;;;;8.60;8.20;;;;;;;20.00;60.69;93026.84;5058130;28;20301;-71
2022/07/16 03:41:22;;;;;;;8.77;8.27;;;;;;;21.00;58.16;93029.84;5058699;28;20242;-71
2022/07/16 03:43:48;;;;;;;8.48;8.07;;;;;;;20.59;59.44;93023.59;5060426;28;20295;-70
2022/07/16 03:46:13;;;;;;;7.78;7.47;;;;;;;20.68;59.98;93032.22;5054560;28;20223;-70
2022/07/16 03:48:39;;;;;;;9.17;8.57;;;;;;;21.06;59.26;93041.81;5058047;28;20220;-70
2022/07/16 03:51:06;;;;;;;8.43;8.02;;;;;;;21.84;57.30;93029.75;5055921;28;20251;-72
2022/07/16 03:53:32;;;;;;;7.60;7.28;;;;;;;22.29;55.79;93027.59;5057471;28;20211;-71
2022/07/16 03:55:58;;;;;;;7.65;7.25;;;;;;;23.26;53.41;93035.78;5059079;28;20232;-70
2022/07/16 03:58:23;;;;;;;9.18;8.32;;;;;;;23.17;53.68;93041.28;5060499;28;20211;-70
2022/07/16 04:00:48;;;;;;;8.05;7.75;;;;;;;22.36;55.98;93042.97;5057244;28;20228;-70
2022/07/16 04:03:14;;;;;;;8.20;7.75;;;;;;;21.73;58.30;93034.75;5056704;28;20226;-71
2022/07/16 04:05:39;;;;;;;7.88;7.47;;;;;;;22.33;57.02;93022.38;5058001;28;20179;-71
2022/07/16 04:08:06;;;;;;;8.48;7.80;;;;;;;22.77;55.39;92998.06;5056868;28;20199;-70
2022/07/16 04:10:31;;;;;;;7.97;7.57;;;;;;;22.49;56.75;93025.84;5057731;28;20188;-71
2022/07/16 04:12:56;;;;;;;9.10;8.52;;;;;;;21.99;58.47;93026.41;5057290;28;20652;-71
2022/07/16 04:15:22;;;;;;;7.90;7.50;;;;;;;21.61;59.48;93018.06;5057872;28;20214;-70
2022/07/16 04:17:47;;;;;;;7.32;6.82;;;;;;;21.21;61.25;93028.66;5058139;28;20253;-70
2022/07/16 04:20:13;;;;;;;7.45;7.00;;;;;;;21.23;60.91;93033.63;5058000;28;20183;-71
2022/07/16 04:22:38;;;;;;;8.20;7.70;;;;;;;21.16;60.42;93026.22;5059666;28;20295;-70
2022/07/16 04:25:04;;;;;;;8.15;7.68;;;;;;;21.08;61.76;93024.44;5058824;28;20220;-70
2022/07/16 04:27:29;;;;;;;8.18;7.55;;;;;;;21.27;60.49;93035.28;5060186;28;20232;-71
2022/07/16 04:29:55;;;;;;;8.45;8.05;;;;;;;21.27;61.43;93037.94;5057968;28;20194;-70
2022/07/16 04:32:21;;;;;;;8.05;7.53;;;;;;;21.42;61.08;93033.81;5062156;28;20241;-70
2022/07/16 04:34:47;;;;;;;8.23;7.78;;;;;;;21.53;57.58;93034.91;5059965;28;20191;-70
2022/07/16 04:37:13;;;;;;;8.65;8.15;;;;;;;21.91;59.80;93041.38;5059539;28;20221;-71
2022/07/16 04:39:38;;;;;;;9.20;7.93;;;;;;;21.65;61.21;93043.63;5054930;28;20192;-72
2022/07/16 04:42:04;;;;;;;8.98;8.57;;;;;;;21.53;62.10;93045.53;5057679;28;20267;-70
2022/07/16 04:44:29;;;;;;;9.90;9.27;;;;;;;21.54;62.09;93047.09;5056112;28;20361;-70
2022/07/16 04:46:54;;;;;;;8.80;8.35;;;;;;;21.39;63.14;93037.13;5059253;28;20259;-71
2022/07/16 04:49:20;;;;;;;9.32;8.63;;;;;;;21.15;64.36;93050.44;5055319;28;20192;-70
2022/07/16 04:51:45;;;;;;;8.65;8.05;;;;;;;21.32;62.51;93045.69;5056000;28;20785;-72
2022/07/16 04:54:10;;;;;;;9.80;9.00;;;;;;;21.34;63.83;93055.97;5058136;28;20192;-70
2022/07/16 04:56:36;;;;;;;8.65;7.85;;;;;;;21.14;62.68;93064.81;5056972;28;20246;-70
2022/07/16 04:59:01;;;;;;;9.30;8.65;;;;;;;21.61;61.04;93058.69;5063081;28;20282;-71
2022/07/16 05:01:26;;;;;;;9.77;8.88;;;;;;;21.57;60.62;93057.81;5059919;28;20222;-71
2022/07/16 05:03:52;;;;;;;9.70;8.85;;;;;;;21.34;61.83;93058.63;5063438;28;20253;-71
2022/07/16 05:06:17;;;;;;;9.20;8.50;;;;;;;21.47;61.82;93065.47;5062950;28;20232;-71
2022/07/16 05:08:43;;;;;;;10.07;8.57;;;;;;;21.84;60.43;93057.13;5060009;28;20184;-70
2022/07/16 05:11:09;;;;;;;9.55;8.93;;;;;;;21.95;60.34;93052.88;5062965;28;20223;-70
2022/07/16 05:13:35;;;;;;;10.07;9.32;;;;;;;22.15;60.14;93059.13;5063446;28;20192;-71
2022/07/16 05:16:01;;;;;;;10.13;9.43;;;;;;;22.05;61.01;93052.41;5061688;28;20290;-71
2022/07/16 05:18:27;;;;;;;8.23;7.72;;;;;;;22.43;59.67;93054.56;5062832;28;20188;-70
2022/07/16 05:20:52;;;;;;;11.90;9.02;;;;;;;22.62;59.58;93068.03;5061818;28;20265;-71
2022/07/16 05:23:18;;;;;;;10.52;9.60;;;;;;;22.37;60.58;93058.59;5061793;28;20197;-71
2022/07/16 05:25:44;;;;;;;9.18;8.38;;;;;;;22.39;61.24;93064.34;5059545;28;20237;-70
2022/07/16 05:28:09;;;;;;;10.65;9.57;;;;;;;22.53;60.30;93072.75;5063283;28;20219;-70
2022/07/16 05:30:34;;;;;;;10.57;9.15;;;;;;;22.51;60.29;93061.66;5061410;28;20206;-70
2022/07/16 05:33:00;;;;;;;10.57;9.02;;;;;;;22.81;59.19;93065.50;5061804;28;20189;-71
2022/07/16 05:35:27;;;;;;;9.75;9.15;;;;;;;23.23;57.05;93061.19;5060358;28;20195;-72
2022/07/16 05:37:52;;;;;;;10.45;9.68;;;;;;;24.68;53.29;93076.53;5057791;28;20197;-70
2022/07/16 05:40:17;;;;;;;14.02;9.32;;;;;;;25.19;51.02;93079.72;5066617;28;20189;-70
2022/07/16 05:42:43;;;;;;;10.63;9.52;;;;;;;27.95;44.49;93084.16;5061272;28;20234;-70
2022/07/16 05:45:09;;;;;;;9.15;8.45;;;;;;;30.20;37.73;93089.25;5061579;28;20270;-70
2022/07/16 05:47:36;;;;;;;9.77;8.88;;;;;;;28.67;40.57;93091.44;5057385;28;20230;-70
2022/07/16 05:50:02;;;;;;;8.95;8.25;;;;;;;30.52;37.51;93098.06;5061731;28;20190;-71
2022/07/16 05:52:28;;;;;;;9.50;8.40;;;;;;;34.16;30.51;93111.81;5058132;28;20346;-71
2022/07/16 05:54:53;;;;;;;9.60;8.65;;;;;;;35.63;27.57;93112.78;5058967;28;20197;-71
2022/07/16 05:57:18;;;;;;;8.35;7.75;;;;;;;36.84;25.94;93121.03;5058666;28;20232;-71
2022/07/16 05:59:44;;;;;;;11.77;7.88;;;;;;;39.10;23.77;93138.03;5062466;28;20189;-69
2022/07/16 06:02:09;;;;;;;7.45;6.82;;;;;;;37.79;24.72;93138.13;5061962;28;20230;-71
2022/07/16 06:04:35;;;;;;;8.70;7.18;;;;;;;39.85;21.74;93134.06;5061284;28;20205;-71
2022/07/16 06:07:00;;;;;;;9.07;8.20;;;;;;;35.55;25.45;93118.38;5060865;28;20915;-72
2022/07/16 06:09:25;;;;;;;7.93;7.32;;;;;;;38.66;23.85;93135.69;5060083;28;20257;-71
2022/07/16 06:11:51;;;;;;;7.43;6.78;;;;;;;40.27;21.30;93132.38;5060958;28;20229;-71
2022/07/16 06:14:16;;;;;;;7.75;6.95;;;;;;;39.05;22.10;93132.38;5061721;28;20193;-72
2022/07/16 06:16:42;;;;;;;10.02;7.15;;;;;;;40.80;20.69;93130.94;5061112;28;20280;-72
2022/07/16 06:19:08;;;;;;;8.07;6.70;;;;;;;40.74;20.62;93124.56;5059954;28;20193;-71
2022/07/16 06:21:33;;;;;;;7.40;6.90;;;;;;;39.39;21.34;93121.34;5060517;28;20225;-71
2022/07/16 06:23:59;;;;;;;9.32;6.70;;;;;;;39.24;22.41;93125.84;5059249;28;20225;-71
2022/07/16 06:26:24;;;;;;;6.60;6.18;;;;;;;38.51;22.86;93117.03;5063524;28;20218;-72
2022/07/16 06:28:49;;;;;;;7.20;6.60;;;;;;;40.25;21.11;93123.84;5063455;28;20182;-71
2022/07/16 06:31:15;;;;;;;6.85;6.35;;;;;;;38.89;22.22;93119.66;5060873;28;20256;-71
2022/07/16 06:33:40;;;;;;;7.18;6.72;;;;;;;39.42;21.54;93123.22;5061903;28;20200;-71
2022/07/16 06:36:06;;;;;;;6.65;6.15;;;;;;;40.61;20.48;93126.63;5060346;28;20218;-71
2022/07/16 06:38:32;;;;;;;7.30;6.60;;;;;;;37.77;23.46;93117.94;5061511;28;20173;-71
2022/07/16 06:40:58;;;;;;;7.22;6.60;;;;;;;38.33;22.50;93105.97;5059224;28;20262;-71
2022/07/16 06:43:23;;;;;;;7.40;6.82;;;;;;;39.53;21.28;93118.09;5059332;28;20201;-70
2022/07/16 06:45:48;;;;;;;7.00;6.50;;;;;;;39.30;21.89;93118.56;5058769;28;20248;-71
2022/07/16 06:48:14;;;;;;;6.55;6.15;;;;;;;37.61;23.36;93115.28;5061132;28;20198;-71
2022/07/16 06:50:39;;;;;;;7.50;6.90;;;;;;;36.77;24.62;93111.09;5058604;28;20189;-71
2022/07/16 06:53:05;;;;;;;7.53;7.03;;;;;;;31.66;31.70;93100.53;5059693;28;20245;-69
2022/07/16 06:55:30;;;;;;;7.50;7.00;;;;;;;29.84;35.25;93102.00;5057114;28;20178;-71
2022/07/16 06:57:55;;;;;;;7.90;7.40;;;;;;;28.90;37.64;93099.94;5062072;28;20201;-73
2022/07/16 07:00:21;;;;;;;9.48;8.68;;;;;;;27.41;39.91;93091.41;5055744;28;20177;-71
2022/07/16 07:02:46;;;;;;;8.65;7.90;;;;;;;26.36;43.91;93091.03;5058305;28;20237;-71
2022/07/16 07:05:12;;;;;;;9.40;7.97;;;;;;;26.34;44.07;93083.34;5057682;28;20228;-70
2022/07/16 07:07:37;;;;;;;9.95;9.13;;;;;;;27.02;42.95;93095.63;5059944;28;20219;-71
2022/07/16 07:10:03;;;;;;;8.73;8.20;;;;;;;26.97;42.72;93093.25;5057681;28;20188;-71
2022/07/16 07:12:29;;;;;;;9.35;8.63;;;;;;;26.83;42.79;93087.75;5059588;28;20214;-70
2022/07/16 07:14:54;;;;;;;10.05;9.18;;;;;;;26.62;44.39;93096.28;5061262;28;20336;-70
2022/07/16 07:17:19;;;;;;;9.18;8.45;;;;;;;26.28;45.47;93094.75;5060231;28;20225;-70
2022/07/16 07:19:45;;;;;;;10.77;9.77;;;;;;;25.61;47.49;93091.09;5058609;28;20216;-71
2022/07/16 07:22:10;;;;;;;9.38;8.75;;;;;;;25.71;47.47;93093.19;5056160;28;20256;-71
2022/07/16 07:24:35;;;;;;;9.57;8.80;;;;;;;25.89;47.95;93086.16;5058610;28;20256;-71
2022/07/16 07:27:01;;;;;;;9.20;8.50;;;;;;;26.18;46.68;93090.78;5058671;28;20703;-70
2022/07/16 07:29:26;;;;;;;9.65;8.95;;;;;;;26.56;45.11;93095.88;5061401;28;20182;-70
2022/07/16 07:31:52;;;;;;;10.40;9.23;;;;;;;26.33;46.41;93084.50;5058305;28;20300;-72
2022/07/16 07:34:17;;;;;;;9.30;8.68;;;;;;;26.02;48.32;93082.19;5059479;28;20186;-69
2022/07/16 07:36:42;;;;;;;9.48;8.63;;;;;;;25.74;47.84;93080.97;5056313;28;20233;-70
2022/07/16 07:39:08;;;;;;;9.02;8.43;;;;;;;26.41;46.80;93093.38;5057179;28;20186;-69
2022/07/16 07:41:33;;;;;;;9.38;8.68;;;;;;;26.01;49.18;93091.31;5057784;28;20232;-70
2022/07/16 07:43:58;;;;;;;9.80;9.13;;;;;;;26.43;47.28;93083.06;5058314;28;20217;-71
2022/07/16 07:46:24;;;;;;;9.25;8.65;;;;;;;26.53;48.07;93093.91;5055163;28;20218;-70
2022/07/16 07:48:50;;;;;;;9.13;8.43;;;;;;;26.25;48.38;93096.25;5062377;28;20213;-70
2022/07/16 07:51:15;;;;;;;9.20;8.40;;;;;;;25.95;49.43;93097.31;5053616;28;20225;-70
2022/07/16 07:53:40;;;;;;;9.13;8.57;;;;;;;25.68;50.53;93083.22;5061166;28;20185;-70
2022/07/16 07:56:06;;;;;;;10.00;9.20;;;;;;;25.88;49.82;93100.69;5059005;28;20240;-70
2022/07/16 07:58:32;;;;;;;9.18;8.40;;;;;;;26.31;49.51;93094.78;5062147;28;20185;-69
2022/07/16 08:00:57;;;;;;;9.98;8.98;;;;;;;25.94;49.23;93107.28;5057613;28;20235;-71
2022/07/16 08:03:23;;;;;;;9.32;8.50;;;;;;;26.60;47.95;93104.69;5060148;28;20253;-71
2022/07/16 08:05:48;;;;;;;12.52;8.00;;;;;;;26.23;49.63;93098.50;5057016;28;20234;-70
2022/07/16 08:08:14;;;;;;;8.45;7.93;;;;;;;26.30;49.02;93095.94;5057636;28;20190;-71
2022/07/16 08:10:39;;;;;;;8.95;8.45;;;;;;;26.42;48.59;93106.41;5056938;28;20185;-69
2022/07/16 08:13:05;;;;;;;9.00;8.30;;;;;;;26.44;47.68;93098.78;5058411;28;20208;-72
2022/07/16 08:15:30;;;;;;;8.77;7.97;;;;;;;26.69;47.54;93105.22;5058237;28;20201;-71
2022/07/16 08:17:56;;;;;;;9.60;8.70;;;;;;;26.47;47.75;93095.38;5058702;28;20190;-70
2022/07/16 08:20:22;;;;;;;8.48;7.95;;;;;;;26.42;44.47;93101.06;5059858;28;20189;-70
2022/07/16 08:22:47;;;;;;;9.90;9.05;;;;;;;26.99;43.46;93101.72;5059694;28;20224;-70
2022/07/16 08:27:57;;;;;;;8.65;7.85;;;;;;;26.86;45.60;93103.09;5056770;28;20209;-70
2022/07/16 08:30:22;;;;;;;8.18;7.75;;;;;;;26.84;47.18;93094.66;5058751;28;20181;-71
2022/07/16 08:32:48;;;;;;;8.45;7.95;;;;;;;26.92;45.79;93104.31;5062778;28;20225;-69
2022/07/16 08:35:13;;;;;;;8.10;7.60;;;;;;;27.05;44.46;93090.28;5061563;28;20196;-71
2022/07/16 08:37:44;;;;;;;8.35;7.75;;;;;;;27.07;44.64;93103.31;5062389;28;20226;-71
2022/07/16 08:40:13;;;;;;;8.95;8.35;;;;;;;27.04;45.55;93104.81;5061509;28;20174;-70
2022/07/16 08:42:39;;;;;;;9.35;8.80;;;;;;;27.20;44.69;93093.84;5060395;28;20229;-71
2022/07/16 08:45:06;;;;;;;8.95;8.40;;;;;;;27.50;43.92;93099.91;5061435;28;20209;-71
2022/07/16 08:47:33;;;;;;;9.43;8.73;;;;;;;27.46;44.49;93102.56;5062384;28;20248;-71
2022/07/16 08:50:00;;;;;;;9.27;8.68;;;;;;;27.62;43.15;93104.97;5060282;28;20213;-71
2022/07/16 08:52:27;;;;;;;9.45;8.75;;;;;;;27.24;43.18;93114.19;5063241;28;20229;-71
2022/07/16 08:54:54;;;;;;;8.57;7.97;;;;;;;27.10;43.52;93103.34;5059856;28;20230;-71
2022/07/16 08:57:21;;;;;;;8.20;7.47;;;;;;;27.09;43.01;93117.13;5061157;28;20220;-71
2022/07/16 08:59:47;;;;;;;8.95;8.38;;;;;;;27.32;42.34;93105.13;5061455;28;20278;-71
2022/07/16 09:02:13;;;;;;;8.90;8.30;;;;;;;27.20;44.38;93116.09;5063650;28;20237;-71
2022/07/16 09:04:39;;;;;;;9.02;8.30;;;;;;;27.52;42.15;93108.38;5062670;28;20206;-71
2022/07/16 09:07:05;;;;;;;8.95;8.35;;;;;;;27.39;42.80;93107.09;5058690;28;20311;-71
2022/07/16 09:09:30;;;;;;;9.40;8.80;;;;;;;27.37;44.82;93118.19;5061454;28;20186;-71
2022/07/16 09:11:56;;;;;;;8.73;8.18;;;;;;;27.80;44.32;93113.94;5059460;28;20252;-71
2022/07/16 09:14:21;;;;;;;9.15;8.27;;;;;;;27.60;42.27;93109.94;5063170;28;20186;-70
2022/07/16 09:16:50;;;;;;;8.27;7.88;;;;;;;27.55;41.49;93116.41;5059526;28;20229;-71
2022/07/16 09:19:33;;;;;;;8.88;8.20;;;;;;;27.88;39.56;93110.94;5061459;28;20174;-70
2022/07/16 09:22:00;;;;;;;9.13;8.25;;;;;;;27.97;41.30;93116.00;5061053;28;20241;-71
2022/07/16 09:24:45;;;;;;;8.30;7.63;;;;;;;28.01;40.06;93114.88;5063531;28;20209;-71
2022/07/16 09:27:17;;;;;;;8.80;8.13;;;;;;;27.95;41.77;93111.00;5058772;28;20233;-70
2022/07/16 09:29:51;;;;;;;8.30;7.80;;;;;;;27.40;40.56;93097.88;5057027;28;20201;-71
2022/07/16 09:32:35;;;;;;;8.52;8.02;;;;;;;27.53;41.10;93104.53;5063124;28;20514;-71
2022/07/16 09:35:05;;;;;;;9.05;8.50;;;;;;;27.88;40.09;93108.28;5061406;28;20201;-71
2022/07/16 09:37:54;;;;;;;8.85;8.15;;;;;;;28.06;40.89;93105.69;5058135;28;20293;-71
2022/07/16 09:40:35;;;;;;;15.93;7.15;;;;;;;27.90;39.11;93102.53;5060653;28;20201;-71
2022/07/16 09:43:01;;;;;;;9.00;8.18;;;;;;;27.82;39.80;93098.22;5057892;28;20255;-71
2022/07/16 09:45:27;;;;;;;8.77;8.30;;;;;;;27.94;39.45;93097.94;5061986;28;20259;-71
2022/07/16 09:47:52;;;;;;;8.48;7.88;;;;;;;27.90;40.25;93089.09;5064010;28;20194;-71
2022/07/16 09:50:18;;;;;;;8.43;7.93;;;;;;;28.48;38.01;93097.91;5061519;28;20190;-70
2022/07/16 09:52:43;;;;;;;8.10;7.60;;;;;;;28.36;40.15;93092.81;5061085;28;20289;-71
2022/07/16 09:55:09;;;;;;;8.20;7.70;;;;;;;28.03;39.14;93093.03;5063448;28;20194;-72
2022/07/16 09:57:36;;;;;;;10.23;9.32;;;;;;;28.17;39.71;93090.44;5060270;28;20300;-71
2022/07/16 10:00:07;;;;;;;8.45;7.97;;;;;;;28.02;39.27;93094.16;5062159;28;20202;-72
2022/07/16 10:02:32;;;;;;;8.98;8.23;;;;;;;28.14;40.68;93080.44;5061245;28;20236;-71
2022/07/16 10:04:58;;;;;;;9.48;8.88;;;;;;;28.53;39.78;93094.81;5061594;28;20218;-71
2022/07/16 10:07:24;;;;;;;8.55;8.05;;;;;;;28.40;37.59;93088.22;5059848;28;20294;-71
2022/07/16 10:09:49;;;;;;;9.30;8.43;;;;;;;28.54;39.02;93077.56;5060400;28;20217;-71
2022/07/16 10:12:16;;;;;;;8.68;8.10;;;;;;;28.99;37.50;93084.22;5058976;28;20217;-71
2022/07/16 10:14:48;;;;;;;8.60;7.93;;;;;;;28.72;38.95;93081.06;5058578;28;20224;-71
2022/07/16 10:17:19;;;;;;;8.77;8.18;;;;;;;28.80;37.10;93079.94;5061298;28;20225;-71
2022/07/16 10:19:45;;;;;;;13.55;9.27;;;;;;;28.60;38.87;93076.06;5059128;28;20218;-71
2022/07/16 10:22:33;;;;;;;9.57;8.75;;;;;;;28.61;39.36;93076.84;5061200;28;20229;-71
2022/07/16 10:24:59;;;;;;;8.95;8.43;;;;;;;28.35;39.17;93067.09;5059976;28;20220;-71
2022/07/16 10:27:35;;;;;;;9.15;8.48;;;;;;;28.58;38.40;93070.28;5060997;28;20222;-71
2022/07/16 10:30:26;;;;;;;8.75;8.15;;;;;;;28.97;37.66;93079.22;5055840;28;20185;-70
2022/07/16 10:33:02;;;;;;;9.02;8.18;;;;;;;28.78;36.99;93071.50;5059849;28;20227;-70
2022/07/16 10:35:32;;;;;;;8.10;7.55;;;;;;;28.97;36.50;93079.22;5060362;28;20201;-71
2022/07/16 10:38:11;;;;;;;7.68;7.28;;;;;;;28.48;34.97;93065.66;5056864;28;20173;-71
2022/07/16 10:40:38;;;;;;;8.50;7.90;;;;;;;28.92;35.69;93071.53;5059766;28;20258;-72
2022/07/16 10:43:13;;;;;;;8.70;8.23;;;;;;;28.96;35.82;93069.63;5062105;28;20195;-71
2022/07/16 10:45:59;;;;;;;7.85;7.45;;;;;;;28.61;35.66;93066.84;5059231;28;20192;-71
2022/07/16 10:48:30;;;;;;;8.35;7.85;;;;;;;28.77;35.64;93071.88;5059257;28;20189;-71
2022/07/16 10:51:15;;;;;;;8.40;7.80;;;;;;;29.17;35.68;93066.25;5060177;28;20227;-71
2022/07/16 10:54:16;;;;;;;8.93;8.15;;;;;;;28.86;37.04;93067.66;5061993;28;20214;-71
2022/07/16 10:56:48;;;;;;;7.90;7.40;;;;;;;28.77;36.46;93074.56;5030283;28;20261;-71
2022/07/16 10:59:32;;;;;;;8.00;7.43;;;;;;;28.56;34.78;93043.03;5053647;28;20208;-71
2022/07/16 11:02:02;;;;;;;8.30;7.50;;;;;;;29.12;36.72;93072.00;5056228;28;20244;-70
2022/07/16 11:04:39;;;;;;;7.70;6.93;;;;;;;29.28;36.45;93075.84;5079189;28;20271;-71
2022/07/16 11:07:08;;;;;;;7.22;6.90;;;;;;;29.43;34.33;93065.88;5079204;28;20219;-71
2022/07/16 11:09:37;;;;;;;7.75;7.07;;;;;;;29.02;34.95;93065.41;5080578;28;20247;-71
2022/07/16 11:12:24;;;;;;;7.70;7.30;;;;;;;29.29;35.71;93066.59;5080067;28;20309;-71
2022/07/16 11:14:51;;;;;;;9.23;8.60;;;;;;;29.26;35.69;93070.06;5081018;28;20201;-70
2022/07/16 11:17:21;;;;;;;7.90;7.38;;;;;;;29.29;37.04;93066.59;5080746;28;20220;-72
2022/07/16 11:19:50;;;;;;;9.23;8.73;;;;;;;29.13;36.93;93060.84;5077951;28;20204;-70
2022/07/16 11:22:20;;;;;;;8.20;7.78;;;;;;;29.16;36.54;93059.31;5081794;28;20220;-71
2022/07/16 11:24:52;;;;;;;9.05;8.45;;;;;;;29.17;35.30;93055.47;5078124;28;20303;-72
2022/07/16 11:27:18;;;;;;;7.95;7.55;;;;;;;29.27;35.10;93050.09;5078074;28;20224;-70
2022/07/16 11:29:43;;;;;;;7.38;7.05;;;;;;;28.99;36.38;93041.97;5075941;28;20197;-70
2022/07/16 11:32:15;;;;;;;8.38;7.80;;;;;;;29.08;35.81;93055.84;5080392;28;20230;-71
2022/07/16 11:34:41;;;;;;;7.85;7.32;;;;;;;29.04;37.07;93046.19;5060047;28;20218;-71
2022/07/16 11:37:06;;;;;;;8.65;8.05;;;;;;;29.11;36.83;93051.59;5078939;28;20258;-71
2022/07/16 11:39:32;;;;;;;7.90;7.40;;;;;;;28.86;36.54;93056.91;5079761;28;20714;-71